Time;durP1;ratioP1;P1;durP2;ratioP2;P2;SDS_P1;SDS_P2;PMS_P1;PMS_P2;Temp;Humidity;BMP_temperature;BMP_pressure;BME280_temperature;BME280_humidity;BME280_pressure;Samples;Min_cycle;Max_cycle;Signal;HPM_P1;HPM_P2
2020/12/11 00:01:51;;;;;;;18.00;8.40;;;1.00;99.90;-0.20;95736.00;;;;6188154;23;20449;-82
2020/12/11 00:04:18;;;;;;;15.40;8.40;;;1.10;99.90;-0.10;95742.00;;;;6188044;23;20396;-83
2020/12/11 00:06:46;;;;;;;30.60;9.93;;;1.00;99.90;-0.20;95747.00;;;;6188154;23;20409;-85
2020/12/11 00:09:15;;;;;;;35.47;10.37;;;1.00;99.90;-0.30;95730.00;;;;6187869;23;20487;-84
2020/12/11 00:11:42;;;;;;;26.67;9.03;;;1.00;99.90;-0.30;95734.00;;;;6188163;23;20409;-83
2020/12/11 00:14:09;;;;;;;17.50;7.67;;;1.00;99.90;-0.30;95742.00;;;;6188853;23;20409;-85
2020/12/11 00:16:37;;;;;;;14.53;6.50;;;1.00;99.90;-0.30;95736.00;;;;6188573;23;20413;-84
2020/12/11 00:19:05;;;;;;;17.70;8.37;;;1.00;99.90;-0.30;95741.00;;;;6186352;23;20424;-83
2020/12/11 00:21:38;;;;;;;19.13;7.10;;;1.00;99.90;-0.30;95750.00;;;;6187708;23;20502;-84
2020/12/11 00:24:06;;;;;;;12.83;7.50;;;1.30;99.90;-0.20;95752.00;;;;6188292;23;20451;-83
2020/12/11 00:26:34;;;;;;;18.63;6.83;;;1.20;99.90;-0.20;95752.00;;;;6187727;23;20484;-84
2020/12/11 00:29:01;;;;;;;13.40;7.37;;;1.00;99.90;-0.20;95752.00;;;;6187989;23;20428;-84
2020/12/11 00:31:29;;;;;;;17.30;8.13;;;1.00;99.90;-0.20;95753.00;;;;6187657;23;20409;-84
2020/12/11 00:33:56;;;;;;;13.67;7.10;;;1.00;99.90;-0.10;95757.00;;;;6188147;23;20396;-84
2020/12/11 00:36:25;;;;;;;33.03;9.67;;;1.50;99.90;-0.20;95755.00;;;;6187189;23;20915;-83
2020/12/11 00:38:53;;;;;;;25.50;8.80;;;1.10;99.90;-0.30;95762.00;;;;6187016;23;20428;-83
2020/12/11 00:41:20;;;;;;;24.33;8.27;;;1.10;99.90;-0.30;95762.00;;;;6187879;23;20448;-85
2020/12/11 00:43:48;;;;;;;23.57;9.63;;;1.00;99.90;-0.30;95766.00;;;;6186787;23;20429;-83
2020/12/11 00:46:23;;;;;;;21.13;8.50;;;1.00;99.90;-0.30;95758.00;;;;6187263;23;20400;-83
2020/12/11 00:48:51;;;;;;;23.03;8.30;;;1.00;99.90;-0.30;95755.00;;;;6187222;23;20428;-84
2020/12/11 00:51:20;;;;;;;15.77;8.13;;;1.00;99.90;-0.30;95757.00;;;;6187360;23;20401;-85
2020/12/11 00:53:48;;;;;;;12.87;7.17;;;1.00;99.90;-0.20;95760.00;;;;6187011;23;20799;-84
2020/12/11 00:56:16;;;;;;;10.77;6.30;;;1.00;99.90;-0.20;95763.00;;;;6188050;23;20412;-83
2020/12/11 00:58:45;;;;;;;12.70;6.33;;;1.00;99.90;-0.20;95764.00;;;;6186757;23;20487;-83
2020/12/11 01:01:12;;;;;;;26.17;6.30;;;1.00;99.90;-0.20;95762.00;;;;6186914;23;20440;-83
2020/12/11 01:03:39;;;;;;;14.60;6.90;;;1.00;99.90;-0.30;95761.00;;;;6186810;23;20417;-83
2020/12/11 01:06:07;;;;;;;19.40;6.80;;;1.00;99.90;-0.20;95765.00;;;;6187864;23;20385;-84
2020/12/11 01:08:34;;;;;;;13.47;6.63;;;1.00;99.90;-0.20;95752.00;;;;6187139;23;20428;-85
2020/12/11 01:11:03;;;;;;;17.07;6.43;;;1.10;99.90;-0.20;95760.00;;;;6187233;23;20693;-83
2020/12/11 01:13:30;;;;;;;23.67;6.67;;;1.00;99.90;-0.20;95766.00;;;;6187396;23;20401;-84
2020/12/11 01:15:58;;;;;;;32.93;6.80;;;1.00;99.90;-0.30;95772.00;;;;6187200;23;20459;-85
2020/12/11 01:18:25;;;;;;;21.83;7.27;;;1.00;99.90;-0.30;95766.00;;;;6187919;23;20536;-85
2020/12/11 01:20:52;;;;;;;13.40;6.23;;;1.00;99.90;-0.30;95779.00;;;;6187137;23;20444;-84
2020/12/11 01:23:20;;;;;;;28.93;8.17;;;1.00;99.90;-0.20;95782.00;;;;6188334;23;20444;-85
2020/12/11 01:25:47;;;;;;;19.53;7.47;;;1.10;99.90;-0.20;95777.00;;;;6187367;23;20413;-85
2020/12/11 01:28:15;;;;;;;44.73;11.93;;;1.20;99.90;-0.30;95778.00;;;;6187729;23;20425;-83
2020/12/11 01:30:43;;;;;;;19.37;9.83;;;1.00;99.90;-0.30;95786.00;;;;6187787;23;20405;-84
2020/12/11 01:33:10;;;;;;;17.63;11.07;;;1.00;99.90;-0.20;95787.00;;;;6187929;23;20404;-85
2020/12/11 01:35:37;;;;;;;13.17;7.80;;;1.00;99.90;-0.30;95779.00;;;;6188547;23;20419;-84
2020/12/11 01:38:05;;;;;;;13.23;7.83;;;1.00;99.90;-0.30;95781.00;;;;6187954;23;20429;-86
2020/12/11 01:40:35;;;;;;;12.73;7.50;;;1.00;99.90;-0.30;95779.00;;;;6186172;23;20585;-85
2020/12/11 01:43:03;;;;;;;10.30;6.53;;;1.10;99.90;-0.30;95772.00;;;;6186063;23;20730;-83
2020/12/11 01:45:31;;;;;;;34.97;10.03;;;1.00;99.90;-0.30;95770.00;;;;6186653;23;20393;-83
2020/12/11 01:47:59;;;;;;;32.23;8.77;;;1.00;99.90;-0.30;95773.00;;;;6185383;23;20947;-84
2020/12/11 01:50:27;;;;;;;15.23;8.33;;;1.00;99.90;-0.20;95778.00;;;;6185972;23;20393;-83
2020/12/11 01:52:54;;;;;;;13.03;7.47;;;1.00;99.90;-0.20;95775.00;;;;6186133;23;20404;-85
2020/12/11 01:55:21;;;;;;;13.23;7.63;;;1.70;99.90;-0.10;95781.00;;;;6186043;23;20447;-83
2020/12/11 01:57:58;;;;;;;21.83;9.60;;;1.00;99.90;-0.20;95771.00;;;;6185973;23;20495;-83
2020/12/11 02:00:27;;;;;;;17.73;10.97;;;1.00;99.90;-0.10;95766.00;;;;6185997;23;20385;-83
2020/12/11 02:03:05;;;;;;;20.60;9.80;;;1.10;99.90;-0.10;95774.00;;;;6185936;23;20756;-84
2020/12/11 02:05:33;;;;;;;27.77;9.33;;;1.10;99.90;-0.10;95779.00;;;;6186650;23;20407;-84
2020/12/11 02:08:01;;;;;;;35.67;12.30;;;1.10;99.90;-0.20;95769.00;;;;6184611;23;20436;-83
2020/12/11 02:10:28;;;;;;;18.20;9.50;;;1.10;99.90;-0.20;95759.00;;;;6185292;23;20416;-83
2020/12/11 02:12:55;;;;;;;16.50;9.73;;;1.10;99.90;-0.20;95759.00;;;;6186026;23;20459;-85
2020/12/11 02:15:23;;;;;;;18.70;9.67;;;1.10;99.90;-0.20;95771.00;;;;6186825;23;20471;-84
2020/12/11 02:17:55;;;;;;;21.20;10.27;;;1.10;99.90;-0.20;95761.00;;;;6186039;23;20431;-83
2020/12/11 02:20:24;;;;;;;21.87;10.47;;;1.10;99.90;-0.20;95768.00;;;;6185012;23;20396;-84
2020/12/11 02:22:52;;;;;;;16.17;9.67;;;1.10;99.90;-0.20;95763.00;;;;6185600;23;20495;-84
2020/12/11 02:25:19;;;;;;;13.97;9.07;;;1.10;99.90;-0.20;95766.00;;;;6185293;23;20860;-85
2020/12/11 02:27:48;;;;;;;19.43;8.60;;;1.10;99.90;-0.20;95768.00;;;;6185238;23;20436;-83
2020/12/11 02:30:17;;;;;;;13.27;7.13;;;1.10;99.90;-0.20;95755.00;;;;6185172;23;20907;-85
2020/12/11 02:32:45;;;;;;;11.57;6.97;;;1.10;99.90;-0.20;95759.00;;;;6185607;23;20466;-82
2020/12/11 02:35:13;;;;;;;22.27;11.67;;;1.10;99.90;-0.10;95760.00;;;;6185670;23;20413;-83
2020/12/11 02:37:41;;;;;;;17.03;8.47;;;1.10;99.90;-0.10;95753.00;;;;6185123;23;20424;-83
2020/12/11 02:40:09;;;;;;;18.07;9.40;;;1.10;99.90;-0.10;95752.00;;;;6185492;23;20404;-84
2020/12/11 02:42:36;;;;;;;23.67;11.53;;;1.10;99.90;-0.10;95755.00;;;;6185152;23;20471;-83
2020/12/11 02:45:05;;;;;;;20.40;8.90;;;1.10;99.90;0.00;95763.00;;;;6185707;23;20415;-83
2020/12/11 02:47:33;;;;;;;16.73;9.57;;;1.20;99.90;0.00;95750.00;;;;6184778;23;20429;-83
2020/12/11 02:50:03;;;;;;;20.20;9.23;;;1.20;99.90;0.00;95755.00;;;;6185698;23;20408;-82
2020/12/11 02:52:30;;;;;;;19.33;9.10;;;1.20;99.90;0.00;95755.00;;;;6186834;23;20400;-82
2020/12/11 02:54:57;;;;;;;18.23;8.70;;;1.20;99.90;0.00;95761.00;;;;6187530;23;20418;-82
2020/12/11 02:57:26;;;;;;;21.57;9.07;;;1.20;99.90;0.00;95758.00;;;;6186534;23;20440;-82
2020/12/11 02:59:53;;;;;;;19.83;11.00;;;1.20;99.90;0.00;95759.00;;;;6186902;23;20393;-82
2020/12/11 03:02:20;;;;;;;19.73;8.43;;;1.20;99.90;0.00;95750.00;;;;6186596;23;20452;-83
2020/12/11 03:04:48;;;;;;;16.03;9.17;;;1.20;99.90;0.00;95750.00;;;;6187772;23;20415;-84
2020/12/11 03:07:15;;;;;;;19.80;10.43;;;1.20;99.90;0.00;95744.00;;;;6186164;23;20463;-82
2020/12/11 03:09:43;;;;;;;25.03;10.53;;;1.50;99.90;0.00;95750.00;;;;6187988;23;20400;-83
2020/12/11 03:12:10;;;;;;;19.27;10.23;;;1.30;99.90;0.10;95744.00;;;;6186751;23;20424;-82
2020/12/11 03:14:38;;;;;;;37.00;10.17;;;1.30;99.90;0.10;95747.00;;;;6187036;23;20412;-85
2020/12/11 03:17:05;;;;;;;33.10;11.57;;;2.00;99.90;0.10;95743.00;;;;6186219;23;20795;-82
2020/12/11 03:19:33;;;;;;;36.97;10.80;;;1.30;99.90;0.10;95740.00;;;;6187117;23;20413;-84
2020/12/11 03:22:00;;;;;;;31.27;8.93;;;1.30;99.90;0.00;95741.00;;;;6186689;23;20444;-83
2020/12/11 03:24:27;;;;;;;51.27;11.60;;;1.30;99.90;0.00;95744.00;;;;6187189;23;20424;-83
2020/12/11 03:26:55;;;;;;;40.83;13.17;;;1.30;99.90;0.00;95749.00;;;;6185880;23;20959;-83
2020/12/11 03:29:22;;;;;;;20.00;10.90;;;1.20;99.90;0.00;95750.00;;;;6187697;23;20397;-82
2020/12/11 03:31:50;;;;;;;21.63;9.57;;;1.20;99.90;0.00;95745.00;;;;6188069;23;20409;-82
2020/12/11 03:34:18;;;;;;;20.30;11.13;;;1.20;99.90;0.00;95747.00;;;;6186754;23;20896;-82
2020/12/11 03:36:48;;;;;;;21.33;10.27;;;1.20;99.90;0.10;95750.00;;;;6186739;23;20420;-84
2020/12/11 03:39:15;;;;;;;25.47;10.07;;;1.20;99.90;0.00;95745.00;;;;6186536;23;20420;-86
2020/12/11 03:41:43;;;;;;;24.10;11.30;;;1.30;99.90;0.00;95745.00;;;;6187501;23;20444;-83
2020/12/11 03:44:10;;;;;;;17.23;9.37;;;2.20;99.90;0.00;95735.00;;;;6187755;23;20392;-82
2020/12/11 03:46:38;;;;;;;23.53;11.07;;;1.20;99.90;0.10;95738.00;;;;6187056;23;20483;-82
2020/12/11 03:49:06;;;;;;;21.37;10.40;;;1.30;99.90;0.10;95735.00;;;;6187310;23;20421;-82
2020/12/11 03:51:33;;;;;;;30.00;10.30;;;1.30;99.90;0.10;95733.00;;;;6187714;23;20432;-84
2020/12/11 03:54:01;;;;;;;18.77;9.23;;;1.20;99.90;0.00;95728.00;;;;6187562;23;20409;-82
2020/12/11 03:56:28;;;;;;;30.70;9.37;;;1.30;99.90;0.00;95722.00;;;;6186917;23;20421;-82
2020/12/11 03:58:55;;;;;;;22.93;9.83;;;1.30;99.90;0.00;95722.00;;;;6186381;23;20436;-83
2020/12/11 04:01:23;;;;;;;26.47;9.77;;;1.30;99.90;0.00;95726.00;;;;6185899;23;20506;-82
2020/12/11 04:03:50;;;;;;;34.27;13.67;;;1.20;99.90;0.00;95726.00;;;;6187588;23;20408;-82
2020/12/11 04:06:18;;;;;;;27.77;11.30;;;1.20;99.90;0.00;95734.00;;;;6186843;23;20483;-83
2020/12/11 04:08:46;;;;;;;22.37;9.97;;;1.20;99.90;0.00;95728.00;;;;6185871;23;20490;-84
2020/12/11 04:11:15;;;;;;;20.93;11.50;;;1.20;99.90;0.00;95741.00;;;;6186409;23;20412;-83
2020/12/11 04:13:42;;;;;;;21.43;10.17;;;1.20;99.90;0.00;95739.00;;;;6187020;23;20405;-85
2020/12/11 04:16:10;;;;;;;31.83;10.33;;;1.20;99.90;0.00;95723.00;;;;6186626;23;20416;-82
2020/12/11 04:18:38;;;;;;;58.93;11.40;;;1.20;99.90;-0.10;95726.00;;;;6185999;23;20437;-82
2020/12/11 04:21:05;;;;;;;56.60;10.83;;;1.20;99.90;-0.10;95730.00;;;;6187198;23;20420;-84
2020/12/11 04:23:33;;;;;;;22.17;8.30;;;1.20;99.90;-0.10;95723.00;;;;6191249;23;20899;-85
2020/12/11 04:26:00;;;;;;;28.30;8.80;;;1.10;99.90;-0.10;95721.00;;;;6188918;23;20404;-84
2020/12/11 04:28:28;;;;;;;35.67;8.53;;;1.10;99.90;-0.10;95722.00;;;;6188132;23;20959;-84
2020/12/11 04:30:55;;;;;;;20.00;7.13;;;1.10;99.90;-0.10;95726.00;;;;6189372;23;20432;-85
2020/12/11 04:33:23;;;;;;;69.07;10.57;;;1.10;99.90;-0.10;95727.00;;;;6187836;23;20447;-84
2020/12/11 04:35:50;;;;;;;17.07;9.07;;;1.10;99.90;-0.10;95722.00;;;;6189579;23;20440;-83
2020/12/11 04:38:18;;;;;;;30.70;8.30;;;1.10;99.90;-0.10;95717.00;;;;6187835;23;20436;-83
2020/12/11 04:40:46;;;;;;;23.47;8.17;;;1.10;99.90;-0.10;95720.00;;;;6188033;23;20883;-84
2020/12/11 04:43:14;;;;;;;24.03;8.30;;;1.10;99.90;-0.10;95728.00;;;;6183717;23;20491;-83
2020/12/11 04:45:42;;;;;;;26.37;8.27;;;1.10;99.90;-0.10;95715.00;;;;6183802;23;20409;-85
2020/12/11 04:48:10;;;;;;;44.10;8.60;;;1.10;99.90;-0.10;95727.00;;;;6183017;23;20507;-83
2020/12/11 04:50:38;;;;;;;26.03;7.90;;;1.10;99.90;-0.20;95704.00;;;;6185855;23;20412;-84
2020/12/11 04:53:05;;;;;;;14.73;7.50;;;1.10;99.90;-0.20;95706.00;;;;6183469;23;20872;-85
2020/12/11 04:55:35;;;;;;;18.37;7.23;;;1.10;99.90;-0.10;95729.00;;;;6183793;23;20559;-84
2020/12/11 04:58:06;;;;;;;18.77;8.03;;;1.40;99.90;-0.10;95728.00;;;;6183076;23;20829;-85
2020/12/11 05:00:33;;;;;;;19.23;9.47;;;1.10;99.90;-0.10;95734.00;;;;6184379;23;20783;-85
2020/12/11 05:03:01;;;;;;;18.37;8.40;;;1.10;99.90;-0.10;95729.00;;;;6184115;23;20939;-83
2020/12/11 05:05:29;;;;;;;28.10;10.07;;;1.10;99.90;-0.10;95727.00;;;;6182363;23;20753;-84
2020/12/11 05:07:56;;;;;;;16.53;7.43;;;1.10;99.90;-0.10;95731.00;;;;6182341;23;20483;-83
2020/12/11 05:10:24;;;;;;;36.27;9.20;;;1.10;99.90;-0.10;95722.00;;;;6183294;23;20436;-84
2020/12/11 05:12:51;;;;;;;19.33;8.23;;;1.10;99.90;-0.10;95732.00;;;;6186432;23;20493;-84
2020/12/11 05:15:22;;;;;;;16.23;8.50;;;1.10;99.90;-0.10;95736.00;;;;6183935;23;20404;-84
2020/12/11 05:17:49;;;;;;;19.17;8.13;;;1.10;99.90;-0.10;95738.00;;;;6183272;23;20432;-83
2020/12/11 05:20:16;;;;;;;15.57;8.27;;;1.10;99.90;-0.10;95742.00;;;;6182734;23;20427;-83
2020/12/11 05:22:44;;;;;;;20.93;9.07;;;1.20;99.90;0.00;95732.00;;;;6183391;23;20428;-83
2020/12/11 05:25:13;;;;;;;23.77;8.97;;;1.20;99.90;-0.10;95725.00;;;;6183855;23;20900;-81
2020/12/11 05:27:43;;;;;;;42.07;9.37;;;1.20;99.90;-0.10;95711.00;;;;6183103;23;20452;-81
2020/12/11 05:30:25;;;;;;;22.40;9.53;;;1.20;99.90;-0.10;95708.00;;;;6183579;23;20801;-82
2020/12/11 05:32:56;;;;;;;14.07;7.90;;;1.20;99.90;-0.10;95708.00;;;;6184828;23;20400;-83
2020/12/11 05:35:26;;;;;;;16.30;7.87;;;1.20;99.90;-0.10;95728.00;;;;6184331;23;20389;-82
2020/12/11 05:37:57;;;;;;;13.87;6.70;;;1.20;99.90;-0.10;95721.00;;;;6183864;23;20421;-82
2020/12/11 05:40:31;;;;;;;12.93;7.73;;;1.10;99.90;-0.10;95715.00;;;;6183816;23;20408;-82
2020/12/11 05:43:08;;;;;;;13.70;6.53;;;1.10;99.90;-0.10;95724.00;;;;6184735;23;20483;-81
2020/12/11 05:45:38;;;;;;;15.27;7.60;;;1.10;99.90;-0.10;95731.00;;;;6184548;23;20409;-84
2020/12/11 05:48:07;;;;;;;14.40;7.50;;;1.10;99.90;-0.10;95732.00;;;;6183215;23;20424;-82
2020/12/11 05:50:34;;;;;;;17.60;8.23;;;1.10;99.90;-0.10;95728.00;;;;6184183;23;20421;-83
2020/12/11 05:53:02;;;;;;;16.83;7.60;;;1.10;99.90;-0.10;95734.00;;;;6182762;23;20451;-82
2020/12/11 05:55:29;;;;;;;20.00;7.97;;;1.10;99.90;0.00;95733.00;;;;6182981;23;20413;-82
2020/12/11 05:57:59;;;;;;;21.20;8.63;;;2.40;99.90;0.00;95738.00;;;;6183320;23;20467;-82
2020/12/11 06:00:27;;;;;;;20.50;7.83;;;1.20;99.90;0.00;95727.00;;;;6183816;23;20751;-82
2020/12/11 06:02:56;;;;;;;40.90;10.47;;;1.20;99.90;0.00;95740.00;;;;6184279;23;20436;-83
2020/12/11 06:05:25;;;;;;;26.30;9.77;;;1.20;99.90;-0.10;95732.00;;;;6184263;23;20423;-82
2020/12/11 06:07:53;;;;;;;21.67;8.37;;;1.20;99.90;-0.10;95718.00;;;;6184330;23;20428;-82
2020/12/11 06:10:22;;;;;;;22.00;8.93;;;1.20;99.90;0.00;95727.00;;;;6184555;23;20786;-82
2020/12/11 06:12:51;;;;;;;47.27;10.13;;;1.20;99.90;-0.10;95720.00;;;;6183990;23;20419;-83
2020/12/11 06:15:29;;;;;;;23.57;9.97;;;1.20;99.90;-0.10;95717.00;;;;6185061;23;20412;-83
2020/12/11 06:18:02;;;;;;;28.20;11.40;;;1.10;99.90;-0.10;95717.00;;;;6183729;23;20431;-82
2020/12/11 06:20:30;;;;;;;32.33;12.27;;;1.10;99.90;-0.10;95708.00;;;;6184975;23;20941;-81
2020/12/11 06:23:20;;;;;;;27.87;10.63;;;1.20;99.90;-0.10;95721.00;;;;6184856;23;20448;-82
2020/12/11 06:25:51;;;;;;;24.30;10.73;;;1.10;99.90;-0.10;95727.00;;;;6185885;23;20397;-82
2020/12/11 06:28:42;;;;;;;23.80;11.47;;;1.00;99.90;-0.10;95723.00;;;;6185598;23;20844;-82
2020/12/11 06:31:11;;;;;;;31.90;10.67;;;1.10;99.90;-0.10;95718.00;;;;6186188;23;20420;-83
2020/12/11 06:33:42;;;;;;;24.00;9.80;;;1.10;99.90;-0.10;95732.00;;;;6187046;23;20397;-83
2020/12/11 06:36:09;;;;;;;31.67;12.00;;;1.10;99.90;-0.10;95733.00;;;;6185967;23;20410;-83
2020/12/11 06:38:49;;;;;;;27.17;10.93;;;1.10;99.90;-0.10;95731.00;;;;6184140;23;20432;-85
2020/12/11 06:41:39;;;;;;;25.57;12.07;;;1.10;99.90;-0.10;95745.00;;;;6185350;23;20409;-83
2020/12/11 06:44:18;;;;;;;25.10;11.53;;;1.10;99.90;-0.10;95752.00;;;;6185904;23;20409;-83
2020/12/11 06:47:08;;;;;;;74.77;15.07;;;1.10;99.90;-0.10;95753.00;;;;6184605;23;20420;-83
2020/12/11 06:49:37;;;;;;;61.47;12.80;;;1.10;99.90;-0.20;95750.00;;;;6185269;23;20408;-83
2020/12/11 06:52:14;;;;;;;37.83;12.03;;;1.10;99.90;-0.20;95743.00;;;;6184766;23;20410;-83
2020/12/11 06:54:55;;;;;;;22.03;11.13;;;1.10;99.90;-0.10;95757.00;;;;6189384;23;20393;-84
2020/12/11 06:57:47;;;;;;;26.10;10.20;;;1.10;99.90;0.30;95756.00;;;;6184693;23;20772;-79
2020/12/11 07:00:35;;;;;;;21.37;9.67;;;1.20;99.90;0.50;95750.00;;;;6184861;23;20389;-78
2020/12/11 07:03:33;;;;;;;17.67;10.83;;;1.30;99.90;0.40;95743.00;;;;6187250;23;20432;-78
2020/12/11 07:06:06;;;;;;;21.97;9.00;;;1.40;99.90;0.30;95740.00;;;;6185897;23;20930;-79
2020/12/11 07:08:34;;;;;;;19.93;10.40;;;1.50;99.90;0.60;95748.00;;;;6184890;23;20433;-84
2020/12/11 07:11:20;;;;;;;24.70;11.53;;;1.50;99.90;0.30;95740.00;;;;6186515;23;20446;-82
2020/12/11 07:13:50;;;;;;;30.13;11.33;;;1.60;99.90;0.30;95741.00;;;;6186709;23;20880;-82
2020/12/11 07:16:18;;;;;;;22.73;12.03;;;1.50;99.90;0.30;95741.00;;;;6186099;23;20463;-82
2020/12/11 07:18:45;;;;;;;28.43;12.87;;;1.50;99.90;0.20;95746.00;;;;6186383;23;21011;-81
2020/12/11 07:21:14;;;;;;;22.87;13.43;;;1.50;99.90;0.20;95738.00;;;;6187362;23;20408;-81
2020/12/11 07:23:42;;;;;;;29.63;13.13;;;1.50;99.90;0.20;95748.00;;;;6186705;23;20563;-82
2020/12/11 07:26:11;;;;;;;60.37;13.67;;;1.40;99.90;0.10;95745.00;;;;6186044;23;20404;-82
2020/12/11 07:28:38;;;;;;;49.33;13.70;;;1.60;99.90;0.10;95743.00;;;;6185484;23;20475;-82
2020/12/11 07:31:12;;;;;;;23.90;13.10;;;1.40;99.90;0.10;95743.00;;;;6186682;23;20432;-81
2020/12/11 07:33:41;;;;;;;46.13;15.63;;;1.30;99.90;0.10;95734.00;;;;6187072;23;20389;-83
2020/12/11 07:36:08;;;;;;;29.53;14.17;;;1.30;99.90;0.10;95748.00;;;;6186465;23;20400;-84
2020/12/11 07:38:36;;;;;;;37.20;15.40;;;1.30;99.90;0.20;95738.00;;;;6185784;23;20428;-83
2020/12/11 07:41:06;;;;;;;31.57;14.20;;;2.20;99.90;0.10;95742.00;;;;6186262;23;20413;-82
2020/12/11 07:43:33;;;;;;;38.37;17.60;;;1.30;99.90;0.10;95741.00;;;;6187675;23;20487;-82
2020/12/11 07:46:01;;;;;;;26.43;13.70;;;1.30;99.90;0.10;95745.00;;;;6186737;23;20393;-82
2020/12/11 07:48:28;;;;;;;34.37;15.27;;;1.30;99.90;0.10;95743.00;;;;6187524;23;20467;-83
2020/12/11 07:51:01;;;;;;;30.10;13.70;;;1.30;99.90;0.10;95753.00;;;;6189216;23;20405;-84
2020/12/11 07:53:29;;;;;;;31.13;14.43;;;1.30;99.90;0.10;95749.00;;;;6187900;23;20871;-84
2020/12/11 07:55:57;;;;;;;31.53;13.30;;;1.30;99.90;0.10;95741.00;;;;6188276;23;20796;-84
2020/12/11 07:58:26;;;;;;;26.80;12.63;;;1.30;99.90;0.10;95749.00;;;;6185048;23;20826;-84
2020/12/11 08:00:53;;;;;;;28.00;13.53;;;1.30;99.90;0.10;95753.00;;;;6186202;23;20911;-83
2020/12/11 08:03:26;;;;;;;29.50;12.40;;;1.30;99.90;0.10;95751.00;;;;6187741;23;20455;-83
2020/12/11 08:05:53;;;;;;;35.00;15.37;;;1.30;99.90;0.20;95753.00;;;;6187323;23;20404;-83
2020/12/11 08:08:26;;;;;;;33.63;16.57;;;1.30;99.90;0.10;95742.00;;;;6186495;23;20428;-85
2020/12/11 08:10:53;;;;;;;33.80;15.73;;;1.30;99.90;0.10;95742.00;;;;6187644;23;20393;-83
2020/12/11 08:13:24;;;;;;;27.60;14.33;;;1.30;99.90;0.20;95742.00;;;;6188449;23;20409;-84
2020/12/11 08:16:00;;;;;;;33.50;15.50;;;1.30;99.90;0.20;95738.00;;;;6188258;23;20404;-84
2020/12/11 08:18:30;;;;;;;28.33;14.87;;;1.40;99.90;0.20;95725.00;;;;6186838;23;20424;-84
2020/12/11 08:20:59;;;;;;;28.13;15.13;;;1.40;99.90;0.20;95737.00;;;;6187909;23;20409;-84
2020/12/11 08:23:41;;;;;;;29.43;15.97;;;1.40;99.90;0.20;95732.00;;;;6183687;23;20475;-83
2020/12/11 08:26:20;;;;;;;28.83;14.63;;;1.50;99.90;0.20;95728.00;;;;6185324;23;20594;-83
2020/12/11 08:28:50;;;;;;;31.20;14.40;;;1.40;99.90;0.20;95729.00;;;;6181951;23;20436;-82
2020/12/11 08:31:26;;;;;;;24.13;13.33;;;1.40;99.90;0.30;95716.00;;;;6183837;23;20416;-82
2020/12/11 08:34:06;;;;;;;25.20;13.53;;;1.40;99.90;0.30;95742.00;;;;6185667;23;20400;-83
2020/12/11 08:36:37;;;;;;;28.13;14.10;;;1.40;99.90;0.30;95741.00;;;;6185065;23;20420;-82
2020/12/11 08:39:16;;;;;;;28.13;12.80;;;1.50;99.90;0.40;95740.00;;;;6184686;23;20510;-82
2020/12/11 08:42:01;;;;;;;31.67;14.47;;;1.50;99.90;0.20;95740.00;;;;6186212;23;20894;-83
2020/12/11 08:44:44;;;;;;;27.07;15.73;;;1.50;99.90;0.30;95742.00;;;;6186944;23;20435;-82
2020/12/11 08:47:35;;;;;;;25.77;14.53;;;1.30;99.90;0.40;95733.00;;;;6185830;23;20409;-83
2020/12/11 08:50:09;;;;;;;24.13;13.17;;;1.50;99.90;0.40;95737.00;;;;6187091;23;20399;-81
2020/12/11 08:52:36;;;;;;;30.10;17.27;;;1.60;99.90;0.30;95741.00;;;;6185932;23;20456;-84
2020/12/11 08:55:04;;;;;;;26.17;15.43;;;1.50;99.90;0.40;95740.00;;;;6186579;23;20404;-82
2020/12/11 08:57:32;;;;;;;25.00;12.67;;;1.50;99.90;0.40;95739.00;;;;6186378;23;20441;-82
2020/12/11 09:00:00;;;;;;;18.60;11.93;;;1.60;99.90;0.50;95745.00;;;;6187424;23;20415;-83
2020/12/11 09:02:29;;;;;;;21.93;14.27;;;1.60;99.90;0.50;95745.00;;;;6187333;23;20444;-82
2020/12/11 09:04:57;;;;;;;20.77;13.80;;;1.60;99.90;0.50;95750.00;;;;6187413;23;20416;-83
2020/12/11 09:07:34;;;;;;;20.90;11.93;;;1.60;99.90;0.50;95749.00;;;;6185468;23;20435;-84
2020/12/11 09:10:01;;;;;;;30.00;16.70;;;2.60;99.90;0.50;95744.00;;;;6187190;23;20451;-83
2020/12/11 09:12:29;;;;;;;26.67;15.50;;;1.60;99.90;0.50;95742.00;;;;6187071;23;20930;-82
2020/12/11 09:14:56;;;;;;;21.80;12.63;;;1.60;99.90;0.50;95752.00;;;;6187102;23;20404;-82
2020/12/11 09:17:24;;;;;;;23.17;14.20;;;1.60;99.90;0.50;95746.00;;;;6185944;23;20440;-84
2020/12/11 09:19:52;;;;;;;27.47;15.57;;;1.60;99.90;0.50;95741.00;;;;6187242;23;20423;-82
2020/12/11 09:22:19;;;;;;;26.70;15.57;;;1.60;99.90;0.50;95731.00;;;;6186479;23;20433;-81
2020/12/11 09:24:47;;;;;;;29.30;15.30;;;2.20;99.90;0.50;95733.00;;;;6187643;23;20408;-81
2020/12/11 09:27:15;;;;;;;28.70;16.87;;;1.60;99.90;0.50;95726.00;;;;6185257;23;20479;-83
2020/12/11 09:29:44;;;;;;;25.63;13.83;;;1.60;99.90;0.50;95723.00;;;;6185668;23;20451;-82
2020/12/11 09:32:16;;;;;;;22.13;14.13;;;1.60;99.90;0.40;95726.00;;;;6186130;23;20455;-83
2020/12/11 09:34:45;;;;;;;30.40;16.63;;;1.60;99.90;0.40;95716.00;;;;6186834;23;20703;-82
2020/12/11 09:37:12;;;;;;;25.33;15.73;;;1.60;99.90;0.50;95701.00;;;;6185322;23;20921;-82
2020/12/11 09:39:39;;;;;;;32.40;16.33;;;1.60;99.90;0.50;95702.00;;;;6187128;23;20417;-84
2020/12/11 09:42:17;;;;;;;30.43;15.90;;;1.60;99.90;0.40;95704.00;;;;6187662;23;20412;-83
2020/12/11 09:44:56;;;;;;;27.43;14.77;;;1.60;99.90;0.40;95706.00;;;;6187893;23;20397;-86
2020/12/11 09:50:43;;;;;;;25.77;14.20;;;1.60;99.90;0.50;95699.00;;;;6066855;23;20427;-83
2020/12/11 09:53:19;;;;;;;25.70;13.10;;;1.60;99.90;0.60;95699.00;;;;6176804;23;20966;-83
2020/12/11 09:55:49;;;;;;;31.90;16.17;;;1.60;99.90;0.60;95688.00;;;;6187502;23;20909;-84
2020/12/11 09:58:17;;;;;;;27.23;15.47;;;1.70;99.90;0.60;95702.00;;;;6185656;23;20455;-83
2020/12/11 10:00:45;;;;;;;28.20;15.67;;;1.70;99.90;0.50;95691.00;;;;6186906;23;20791;-82
2020/12/11 10:03:14;;;;;;;26.13;15.67;;;2.20;99.90;0.60;95689.00;;;;6184987;23;20460;-84
2020/12/11 10:05:43;;;;;;;29.60;16.07;;;1.70;99.90;0.60;95674.00;;;;6184801;23;20405;-84
2020/12/11 10:08:10;;;;;;;31.33;18.43;;;1.70;99.90;0.50;95681.00;;;;6184296;23;20487;-84
2020/12/11 10:10:37;;;;;;;23.83;13.37;;;2.10;99.90;0.60;95673.00;;;;6185567;23;20408;-84
2020/12/11 10:13:06;;;;;;;22.13;14.43;;;1.70;99.90;0.60;95671.00;;;;6185469;23;20403;-82
2020/12/11 10:15:33;;;;;;;26.80;14.80;;;1.70;99.90;0.60;95666.00;;;;6186306;23;20425;-82
2020/12/11 10:18:03;;;;;;;25.87;12.87;;;1.80;99.90;0.70;95663.00;;;;6186671;23;20439;-85
2020/12/11 10:20:31;;;;;;;25.40;14.07;;;1.80;99.90;0.80;95671.00;;;;6186803;23;20672;-83
2020/12/11 10:22:59;;;;;;;23.97;13.33;;;1.80;99.90;0.80;95663.00;;;;6186930;23;20981;-83
2020/12/11 10:25:27;;;;;;;21.37;14.13;;;1.90;99.90;0.80;95657.00;;;;6187125;23;20408;-83
2020/12/11 10:27:55;;;;;;;22.20;13.33;;;1.90;99.90;0.90;95649.00;;;;6186640;23;20431;-85
2020/12/11 10:30:23;;;;;;;21.43;12.43;;;1.90;99.90;0.90;95637.00;;;;6189216;23;20412;-86
2020/12/11 10:32:50;;;;;;;23.87;12.07;;;2.00;99.90;1.00;95631.00;;;;6188597;23;20864;-83
2020/12/11 10:35:17;;;;;;;22.30;13.97;;;2.00;99.90;1.10;95635.00;;;;6188603;23;20408;-86
2020/12/11 10:37:45;;;;;;;25.93;14.20;;;2.10;99.90;1.20;95628.00;;;;6187858;23;20431;-85
2020/12/11 10:40:13;;;;;;;24.63;13.67;;;2.20;99.90;1.30;95616.00;;;;6188593;23;20412;-86
2020/12/11 10:42:41;;;;;;;23.53;12.87;;;2.20;99.90;1.30;95610.00;;;;6188778;23;20958;-84
2020/12/11 10:45:08;;;;;;;21.37;12.87;;;2.30;99.90;1.50;95605.00;;;;6192824;23;20578;-84
2020/12/11 10:47:35;;;;;;;24.30;13.17;;;2.40;99.90;1.60;95597.00;;;;6188201;23;20475;-84
2020/12/11 10:50:03;;;;;;;23.53;13.53;;;2.50;99.90;1.80;95604.00;;;;6188888;23;20409;-84
2020/12/11 10:52:30;;;;;;;24.17;13.57;;;2.60;99.90;1.80;95585.00;;;;6188261;23;20432;-86
2020/12/11 10:54:58;;;;;;;19.10;12.37;;;3.20;99.90;1.80;95595.00;;;;6189464;23;20409;-84
2020/12/11 10:57:26;;;;;;;21.70;13.53;;;3.60;99.90;1.80;95594.00;;;;6187562;23;20448;-85
2020/12/11 10:59:53;;;;;;;28.63;15.77;;;2.80;99.90;1.80;95595.00;;;;6190508;23;20181;-85
2020/12/11 11:02:20;;;;;;;25.53;13.73;;;2.80;99.90;1.80;95588.00;;;;6190228;23;20212;-85
2020/12/11 11:04:48;;;;;;;25.47;14.27;;;2.80;99.90;1.70;95584.00;;;;6190827;23;20408;-84
2020/12/11 11:07:17;;;;;;;24.27;13.87;;;2.80;99.90;1.70;95576.00;;;;6189112;23;20690;-84
2020/12/11 11:09:49;;;;;;;28.23;15.93;;;2.80;99.90;1.60;95570.00;;;;6190489;23;20427;-84